createdAt,value
2023-03-06T00:00:56.945Z,78.44
2023-03-06T00:03:50.376Z,78.24
2023-03-06T00:06:17.455Z,78.38
2023-03-06T00:08:44.374Z,78.31
2023-03-06T00:11:15.431Z,78.48
2023-03-06T00:13:42.575Z,78.52
2023-03-06T00:16:09.621Z,78.64
2023-03-06T00:18:37.841Z,78.73
2023-03-06T00:21:08.068Z,78.70
2023-03-06T00:23:37.128Z,78.64
2023-03-06T00:26:08.774Z,78.76
2023-03-06T00:28:37.120Z,78.83
2023-03-06T00:31:04.362Z,78.97
2023-03-06T00:33:32.146Z,78.50
2023-03-06T00:35:59.146Z,78.81
2023-03-06T00:38:28.840Z,78.99
2023-03-06T00:40:56.049Z,78.87
2023-03-06T00:43:23.059Z,78.87
2023-03-06T00:45:50.355Z,79.02
2023-03-06T00:48:18.041Z,79.18
2023-03-06T00:50:45.031Z,78.99
2023-03-06T00:53:13.738Z,78.57
2023-03-06T00:55:44.561Z,78.71
2023-03-06T00:58:12.132Z,78.46
2023-03-06T01:00:39.928Z,78.79
2023-03-06T01:03:07.065Z,78.87
2023-03-06T01:05:37.556Z,78.66
2023-03-06T01:08:06.606Z,78.49
2023-03-06T01:10:35.225Z,78.36
2023-03-06T01:13:02.242Z,78.71
2023-03-06T01:15:29.394Z,78.86
2023-03-06T01:18:00.021Z,78.75
2023-03-06T01:20:27.594Z,78.60
2023-03-06T01:22:57.001Z,78.70
2023-03-06T01:25:25.898Z,78.53
2023-03-06T01:27:53.409Z,78.94
2023-03-06T01:30:21.599Z,78.86
2023-03-06T01:32:49.850Z,78.91
2023-03-06T01:35:56.922Z,79.02
2023-03-06T01:38:54.176Z,79.19
2023-03-06T01:42:01.312Z,78.72
2023-03-06T01:45:07.440Z,79.06
2023-03-06T01:47:34.679Z,78.86
2023-03-06T01:50:04.603Z,79.01
2023-03-06T01:52:36.876Z,79.32
2023-03-06T01:55:20.935Z,78.95
2023-03-06T01:57:55.778Z,79.25
2023-03-06T02:03:16.325Z,79.20
2023-03-06T02:05:45.539Z,79.39
2023-03-06T02:08:16.569Z,78.96
2023-03-06T02:10:56.416Z,78.99
2023-03-06T02:13:23.805Z,79.01
2023-03-06T02:15:51.365Z,79.24
2023-03-06T02:18:18.879Z,78.99
2023-03-06T02:21:00.597Z,79.17
2023-03-06T02:23:54.417Z,79.00
2023-03-06T02:26:22.289Z,79.39
2023-03-06T02:28:49.377Z,79.20
2023-03-06T02:31:27.232Z,79.01
2023-03-06T02:34:20.762Z,79.23
2023-03-06T02:36:56.648Z,79.13
2023-03-06T02:39:26.852Z,79.23
2023-03-06T02:41:54.483Z,79.51
2023-03-06T02:44:23.672Z,78.90
2023-03-06T02:46:50.690Z,79.17
2023-03-06T02:49:18.548Z,79.27
2023-03-06T02:51:46.195Z,79.25
2023-03-06T02:54:13.277Z,79.80
2023-03-06T02:56:40.449Z,79.62
2023-03-06T02:59:07.617Z,79.46
2023-03-06T03:01:34.814Z,79.68
2023-03-06T03:04:02.183Z,79.94
2023-03-06T03:06:29.648Z,79.70
2023-03-06T03:08:56.798Z,79.72
2023-03-06T03:11:23.968Z,79.63
2023-03-06T03:13:51.559Z,79.59
2023-03-06T03:16:18.823Z,79.67
2023-03-06T03:18:48.202Z,79.86
2023-03-06T03:21:15.565Z,79.73
2023-03-06T03:23:42.667Z,79.74
2023-03-06T03:26:19.485Z,79.98
2023-03-06T03:28:46.477Z,79.55
2023-03-06T03:31:14.119Z,79.71
2023-03-06T03:33:41.527Z,79.79
2023-03-06T03:36:09.359Z,80.24
2023-03-06T03:38:36.750Z,79.96
2023-03-06T03:41:05.106Z,80.17
2023-03-06T03:43:32.786Z,79.98
2023-03-06T03:46:00.695Z,79.90
2023-03-06T03:48:28.747Z,79.80
2023-03-06T03:50:55.898Z,79.92
2023-03-06T03:53:23.251Z,79.60
2023-03-06T03:55:50.581Z,79.54
2023-03-06T03:58:17.577Z,79.93
2023-03-06T04:00:45.183Z,79.81
2023-03-06T04:03:15.203Z,79.64
2023-03-06T04:05:42.499Z,80.13
2023-03-06T04:08:09.576Z,80.01
2023-03-06T04:10:39.006Z,79.52
2023-03-06T04:13:08.826Z,79.66
2023-03-06T04:15:37.252Z,79.93
2023-03-06T04:18:04.691Z,79.88
2023-03-06T04:20:31.589Z,79.63
2023-03-06T04:22:58.995Z,79.64
2023-03-06T04:25:26.148Z,79.98
2023-03-06T04:27:53.218Z,79.62
2023-03-06T04:30:20.516Z,80.12
2023-03-06T04:32:47.513Z,79.72
2023-03-06T04:35:14.459Z,79.85
2023-03-06T04:37:41.946Z,79.78
2023-03-06T04:40:18.473Z,80.04
2023-03-06T04:42:46.235Z,79.88
2023-03-06T04:45:13.877Z,79.87
2023-03-06T04:47:41.123Z,80.31
2023-03-06T04:50:09.344Z,80.02
2023-03-06T04:52:36.538Z,80.24
2023-03-06T04:55:09.031Z,79.94
2023-03-06T04:57:36.998Z,80.13
2023-03-06T05:00:12.631Z,79.80
2023-03-06T05:02:40.239Z,79.70
2023-03-06T05:05:07.792Z,80.00
2023-03-06T05:07:36.419Z,80.31
2023-03-06T05:10:04.861Z,80.24
2023-03-06T05:12:32.268Z,80.65
2023-03-06T05:14:59.500Z,80.43
2023-03-06T05:17:29.348Z,80.15
2023-03-06T05:19:56.529Z,80.41
2023-03-06T05:22:24.567Z,79.91
2023-03-06T05:24:52.217Z,80.85
2023-03-06T05:27:19.579Z,80.21
2023-03-06T05:29:47.243Z,80.88
2023-03-06T05:32:18.842Z,80.68
2023-03-06T05:34:46.045Z,80.60
2023-03-06T05:37:15.845Z,80.40
2023-03-06T05:39:44.151Z,80.38
2023-03-06T05:42:11.212Z,80.88
2023-03-06T05:44:38.786Z,80.58
2023-03-06T05:47:08.337Z,80.51
2023-03-06T05:49:37.149Z,80.78
2023-03-06T05:52:06.060Z,80.50
2023-03-06T05:54:36.787Z,80.81
2023-03-06T05:57:06.381Z,80.65
2023-03-06T05:59:34.096Z,80.72
2023-03-06T06:02:01.688Z,81.03
2023-03-06T06:04:31.637Z,80.95
2023-03-06T06:07:01.166Z,81.13
2023-03-06T06:09:29.207Z,80.82
2023-03-06T06:12:00.491Z,81.31
2023-03-06T06:14:35.555Z,81.40
2023-03-06T06:17:03.081Z,81.03
2023-03-06T06:19:31.317Z,80.95
2023-03-06T06:21:59.168Z,81.17
2023-03-06T06:24:27.279Z,80.64
2023-03-06T06:26:56.693Z,80.71
2023-03-06T06:29:26.176Z,80.91
2023-03-06T06:31:54.069Z,80.81
2023-03-06T06:34:22.792Z,80.75
2023-03-06T06:36:53.593Z,80.87
2023-03-06T06:39:23.984Z,80.85
2023-03-06T06:42:05.899Z,80.63
2023-03-06T06:44:40.386Z,80.23
2023-03-06T06:47:25.047Z,80.39
2023-03-06T06:49:55.099Z,80.78
2023-03-06T06:52:23.387Z,80.64
2023-03-06T06:54:50.822Z,80.37
2023-03-06T06:57:19.018Z,80.39
2023-03-06T06:59:46.321Z,80.49
2023-03-06T07:02:14.901Z,80.56
2023-03-06T07:05:00.302Z,80.61
2023-03-06T07:07:30.435Z,80.49
2023-03-06T07:09:58.336Z,80.46
2023-03-06T07:12:25.687Z,80.28
2023-03-06T07:14:56.509Z,80.52
2023-03-06T07:17:24.491Z,80.15
2023-03-06T07:19:51.713Z,80.46
2023-03-06T07:22:19.699Z,80.16
2023-03-06T07:24:47.633Z,80.09
2023-03-06T07:27:16.109Z,79.94
2023-03-06T07:30:20.078Z,80.22
2023-03-06T07:33:24.854Z,80.30
2023-03-06T07:36:14.101Z,79.93
2023-03-06T07:38:41.428Z,79.89
2023-03-06T07:41:13.826Z,80.06
2023-03-06T07:43:42.451Z,80.52
2023-03-06T07:46:11.511Z,80.63
2023-03-06T07:48:39.007Z,80.60
2023-03-06T07:51:13.796Z,80.56
2023-03-06T07:53:45.292Z,80.79
2023-03-06T07:56:35.617Z,80.46
2023-03-06T07:59:13.681Z,80.12
2023-03-06T08:01:41.145Z,80.64
2023-03-06T08:04:15.291Z,80.42
2023-03-06T08:06:42.813Z,80.30
2023-03-06T08:09:09.945Z,80.57
2023-03-06T08:11:36.845Z,80.27
2023-03-06T08:14:04.407Z,79.86
2023-03-06T08:16:31.754Z,79.70
2023-03-06T08:18:59.002Z,79.98
2023-03-06T08:21:29.463Z,79.65
2023-03-06T08:23:56.923Z,79.20
2023-03-06T08:26:27.894Z,79.35
2023-03-06T08:28:57.405Z,79.48
2023-03-06T08:31:32.769Z,79.37
2023-03-06T08:34:03.535Z,79.49
2023-03-06T08:36:30.981Z,79.19
2023-03-06T08:38:58.841Z,78.87
2023-03-06T08:41:26.885Z,78.27
2023-03-06T08:43:54.229Z,78.35
2023-03-06T08:46:24.271Z,78.04
2023-03-06T08:48:52.321Z,77.94
2023-03-06T08:51:20.508Z,77.79
2023-03-06T08:53:48.217Z,77.40
2023-03-06T08:56:24.880Z,77.04
2023-03-06T08:58:52.109Z,76.81
2023-03-06T09:01:28.619Z,77.02
2023-03-06T09:03:58.694Z,76.21
2023-03-06T09:06:27.985Z,76.55
2023-03-06T09:08:56.054Z,75.92
2023-03-06T09:11:24.977Z,76.08
2023-03-06T09:13:53.060Z,75.70
2023-03-06T09:16:22.996Z,76.09
2023-03-06T09:18:53.344Z,75.82
2023-03-06T09:21:22.045Z,74.54
2023-03-06T09:23:51.450Z,74.95
2023-03-06T09:26:19.207Z,73.72
2023-03-06T09:28:47.112Z,74.89
2023-03-06T09:31:20.276Z,72.97
2023-03-06T09:33:59.074Z,73.71
2023-03-06T09:36:26.733Z,74.62
2023-03-06T09:38:53.852Z,71.84
2023-03-06T09:41:43.457Z,72.33
2023-03-06T09:44:21.344Z,71.48
2023-03-06T09:47:11.642Z,70.96
2023-03-06T09:49:47.833Z,71.31
2023-03-06T09:52:18.436Z,71.42
2023-03-06T09:54:55.591Z,71.24
2023-03-06T09:57:44.144Z,69.93
2023-03-06T10:00:29.767Z,69.45
2023-03-06T10:03:25.872Z,67.90
2023-03-06T10:06:00.947Z,67.85
2023-03-06T10:08:39.317Z,67.85
2023-03-06T10:11:10.945Z,67.40
2023-03-06T10:13:46.759Z,67.08
2023-03-06T10:16:31.133Z,67.66
2023-03-06T10:19:11.119Z,66.38
2023-03-06T10:21:53.770Z,66.11
2023-03-06T10:24:39.823Z,64.91
2023-03-06T10:27:18.981Z,65.82
2023-03-06T10:30:02.545Z,66.67
2023-03-06T10:32:48.746Z,64.38
2023-03-06T10:35:31.340Z,62.94
2023-03-06T10:38:13.737Z,61.89
2023-03-06T10:41:09.790Z,63.16
2023-03-06T10:44:03.512Z,63.50
2023-03-06T10:46:43.800Z,63.18
2023-03-06T10:49:25.209Z,61.51
2023-03-06T10:52:06.729Z,59.63
2023-03-06T10:54:40.097Z,60.64
2023-03-06T10:57:26.413Z,60.52
2023-03-06T11:00:23.464Z,61.20
2023-03-06T11:03:07.662Z,60.53
2023-03-06T11:05:35.845Z,59.80
2023-03-06T11:08:04.179Z,59.19
2023-03-06T11:10:40.317Z,58.59
2023-03-06T11:13:23.578Z,58.42
2023-03-06T11:16:04.470Z,59.00
2023-03-06T11:18:39.862Z,57.66
2023-03-06T11:21:27.981Z,58.07
2023-03-06T11:24:03.022Z,57.52
2023-03-06T11:26:42.167Z,58.27
2023-03-06T11:29:54.874Z,57.56
2023-03-06T11:32:25.566Z,58.41
2023-03-06T11:34:56.729Z,57.83
2023-03-06T11:37:35.005Z,57.67
2023-03-06T11:40:12.487Z,57.67
2023-03-06T11:43:58.549Z,57.37
2023-03-06T11:47:10.916Z,56.72
2023-03-06T11:50:19.019Z,56.26
2023-03-06T11:52:57.730Z,55.27
2023-03-06T11:56:21.216Z,54.23
2023-03-06T11:59:23.726Z,54.18
2023-03-06T12:02:28.946Z,54.19
2023-03-06T12:05:34.243Z,53.73
2023-03-06T12:08:42.083Z,53.84
2023-03-06T12:11:33.491Z,53.86
2023-03-06T12:14:34.203Z,54.94
2023-03-06T12:17:07.699Z,54.66
2023-03-06T12:19:59.989Z,53.82
2023-03-06T12:22:58.013Z,54.54
2023-03-06T12:25:52.051Z,55.02
2023-03-06T12:28:57.191Z,54.62
2023-03-06T12:31:33.171Z,54.14
2023-03-06T12:34:19.624Z,54.08
2023-03-06T12:37:13.440Z,53.69
2023-03-06T12:39:50.072Z,53.69
2023-03-06T12:42:45.540Z,53.80
2023-03-06T12:45:35.683Z,53.78
2023-03-06T12:48:17.705Z,53.82
2023-03-06T12:50:46.402Z,53.51
2023-03-06T12:53:28.210Z,53.14
2023-03-06T12:56:05.476Z,53.71
2023-03-06T12:58:57.929Z,53.30
2023-03-06T13:01:49.794Z,53.91
2023-03-06T13:04:46.169Z,54.31
2023-03-06T13:07:44.219Z,54.74
2023-03-06T13:10:29.125Z,55.07
2023-03-06T13:13:05.577Z,54.69
2023-03-06T13:15:50.537Z,55.00
2023-03-06T13:18:23.736Z,55.23
2023-03-06T13:20:57.266Z,55.28
2023-03-06T13:23:33.321Z,54.72
2023-03-06T13:26:26.342Z,55.00
2023-03-06T13:28:58.192Z,55.28
2023-03-06T13:31:50.868Z,54.65
2023-03-06T13:34:38.991Z,54.92
2023-03-06T13:37:24.057Z,55.07
2023-03-06T13:40:00.347Z,54.86
2023-03-06T13:42:43.853Z,54.67
2023-03-06T13:45:46.764Z,55.12
2023-03-06T13:49:29.025Z,55.04
2023-03-06T13:53:14.433Z,54.28
2023-03-06T13:56:56.872Z,54.61
2023-03-06T14:00:42.545Z,54.53
2023-03-06T14:04:41.426Z,54.03
2023-03-06T14:08:22.944Z,54.87
2023-03-06T14:12:06.731Z,54.60
2023-03-06T14:15:53.330Z,54.80
2023-03-06T14:19:00.662Z,54.25
2023-03-06T14:22:30.446Z,54.68
2023-03-06T14:25:34.894Z,54.43
2023-03-06T14:28:42.447Z,54.75
2023-03-06T14:31:58.087Z,55.10
2023-03-06T14:35:27.946Z,54.60
2023-03-06T14:38:55.971Z,55.26
2023-03-06T14:42:45.260Z,55.11
2023-03-06T14:46:22.799Z,55.54
2023-03-06T14:50:18.383Z,54.66
2023-03-06T14:54:05.356Z,55.04
2023-03-06T14:57:55.035Z,55.29
2023-03-06T15:01:22.319Z,55.78
2023-03-06T15:04:52.344Z,55.77
2023-03-06T15:08:24.944Z,55.45
2023-03-06T15:12:10.358Z,55.98
2023-03-06T15:15:40.642Z,56.32
2023-03-06T15:19:42.809Z,55.37
2023-03-06T15:23:05.283Z,56.93
2023-03-06T15:27:02.210Z,58.16
2023-03-06T15:30:14.395Z,58.34
2023-03-06T15:33:30.763Z,59.41
2023-03-06T15:37:03.138Z,60.20
2023-03-06T15:40:28.861Z,61.07
2023-03-06T15:43:45.041Z,61.62
2023-03-06T15:47:16.142Z,61.87
2023-03-06T15:50:44.173Z,62.15
2023-03-06T15:54:12.880Z,62.41
2023-03-06T15:57:58.775Z,63.01
2023-03-06T16:01:45.509Z,62.90
2023-03-06T16:05:33.205Z,62.87
2023-03-06T16:09:18.580Z,62.81
2023-03-06T16:13:48.111Z,63.43
2023-03-06T16:17:15.121Z,63.52
2023-03-06T16:20:42.094Z,63.78
2023-03-06T16:24:14.795Z,63.78
2023-03-06T16:28:02.995Z,63.99
2023-03-06T16:31:49.666Z,64.43
2023-03-06T16:35:00.575Z,64.52
2023-03-06T16:38:08.482Z,65.07
2023-03-06T16:41:56.919Z,65.65
2023-03-06T16:45:44.011Z,65.96
2023-03-06T16:49:31.588Z,66.19
2023-03-06T16:53:18.364Z,66.60
2023-03-06T16:57:05.682Z,66.50
2023-03-06T17:00:52.586Z,66.82
2023-03-06T17:04:38.564Z,66.76
2023-03-06T17:08:25.177Z,67.18
2023-03-06T17:11:56.012Z,66.96
2023-03-06T17:15:42.802Z,67.34
2023-03-06T17:19:29.663Z,67.47
2023-03-06T17:23:19.267Z,67.84
2023-03-06T17:27:06.929Z,68.18
2023-03-06T17:30:53.759Z,68.61
2023-03-06T17:34:40.870Z,68.73
2023-03-06T17:38:27.829Z,68.99
2023-03-06T17:41:09.806Z,69.26
2023-03-06T17:43:59.168Z,69.86
2023-03-06T17:46:52.003Z,69.65
2023-03-06T17:50:01.486Z,69.71
2023-03-06T17:53:15.528Z,69.91
2023-03-06T17:56:37.551Z,70.36
2023-03-06T17:59:07.774Z,70.97
2023-03-06T18:01:37.038Z,70.89
2023-03-06T18:04:06.514Z,71.32
2023-03-06T18:06:36.337Z,71.04
2023-03-06T18:09:08.686Z,71.41
2023-03-06T18:11:38.118Z,71.32
2023-03-06T18:14:06.642Z,71.82
2023-03-06T18:16:33.998Z,71.95
2023-03-06T18:19:03.002Z,71.61
2023-03-06T18:21:32.021Z,71.98
2023-03-06T18:24:00.548Z,72.39
2023-03-06T18:26:31.683Z,72.24
2023-03-06T18:29:06.590Z,72.21
2023-03-06T18:31:36.087Z,72.47
2023-03-06T18:34:17.444Z,72.89
2023-03-06T18:36:47.677Z,72.86
2023-03-06T18:39:15.332Z,72.84
2023-03-06T18:41:42.479Z,72.90
2023-03-06T18:44:09.647Z,73.18
2023-03-06T18:46:39.633Z,73.64
2023-03-06T18:49:09.289Z,73.97
2023-03-06T18:51:37.985Z,73.78
2023-03-06T18:54:07.641Z,74.47
2023-03-06T18:56:35.328Z,74.30
2023-03-06T18:59:06.991Z,74.48
2023-03-06T19:02:17.237Z,74.64
2023-03-06T19:04:46.786Z,74.87
2023-03-06T19:07:15.015Z,74.84
2023-03-06T19:09:45.353Z,74.96
2023-03-06T19:12:18.470Z,74.69
2023-03-06T19:14:47.295Z,74.98
2023-03-06T19:17:14.587Z,75.16
2023-03-06T19:19:41.970Z,75.45
2023-03-06T19:22:12.633Z,74.97
2023-03-06T19:24:39.947Z,75.42
2023-03-06T19:27:07.892Z,75.71
2023-03-06T19:29:34.962Z,75.75
2023-03-06T19:32:02.499Z,75.53
2023-03-06T19:34:30.039Z,75.74
2023-03-06T19:36:58.194Z,76.06
2023-03-06T19:39:28.140Z,76.04
2023-03-06T19:41:56.773Z,75.98
2023-03-06T19:44:24.594Z,75.98
2023-03-06T19:46:54.028Z,75.93
2023-03-06T19:49:25.198Z,75.93
2023-03-06T19:51:52.699Z,76.33
2023-03-06T19:54:26.036Z,76.42
2023-03-06T19:56:57.650Z,76.23
2023-03-06T19:59:27.372Z,76.48
2023-03-06T20:01:54.465Z,76.41
2023-03-06T20:04:22.271Z,76.68
2023-03-06T20:06:56.679Z,76.45
2023-03-06T20:09:25.180Z,76.30
2023-03-06T20:11:52.574Z,76.49
2023-03-06T20:14:19.868Z,76.74
2023-03-06T20:16:47.286Z,76.56
2023-03-06T20:19:14.439Z,76.04
2023-03-06T20:21:41.599Z,76.11
2023-03-06T20:24:11.971Z,76.72
2023-03-06T20:26:39.413Z,76.24
2023-03-06T20:29:10.731Z,76.40
2023-03-06T20:31:39.279Z,76.68
2023-03-06T20:34:06.496Z,76.73
2023-03-06T20:36:37.333Z,76.64
2023-03-06T20:39:09.322Z,76.81
2023-03-06T20:41:36.677Z,76.65
2023-03-06T20:44:06.690Z,76.99
2023-03-06T20:47:25.665Z,76.69
2023-03-06T20:50:52.412Z,77.10
2023-03-06T20:54:25.957Z,76.84
2023-03-06T20:58:12.781Z,76.93
2023-03-06T21:01:47.094Z,77.06
2023-03-06T21:04:59.285Z,77.12
2023-03-06T21:08:47.011Z,77.52
2023-03-06T21:12:34.341Z,77.39
2023-03-06T21:16:23.774Z,77.86
2023-03-06T21:19:53.172Z,77.35
2023-03-06T21:23:41.408Z,77.71
2023-03-06T21:27:12.697Z,77.82
2023-03-06T21:30:21.891Z,77.98
2023-03-06T21:33:50.940Z,78.05
2023-03-06T21:37:38.090Z,77.84
2023-03-06T21:41:27.951Z,78.07
2023-03-06T21:45:15.321Z,77.95
2023-03-06T21:48:12.147Z,78.04
2023-03-06T21:51:37.122Z,78.41
2023-03-06T21:55:05.858Z,78.20
2023-03-06T21:58:39.520Z,78.35
2023-03-06T22:02:22.535Z,78.58
2023-03-06T22:05:31.267Z,78.20
2023-03-06T22:08:43.203Z,78.03
2023-03-06T22:12:00.106Z,78.41
2023-03-06T22:15:26.591Z,78.46
2023-03-06T22:17:56.336Z,78.51
2023-03-06T22:21:04.263Z,78.10
2023-03-06T22:23:39.300Z,78.04
2023-03-06T22:26:33.544Z,78.11
2023-03-06T22:29:41.503Z,78.29
2023-03-06T22:33:28.691Z,78.01
2023-03-06T22:37:16.031Z,78.12
2023-03-06T22:40:43.053Z,77.96
2023-03-06T22:43:50.810Z,77.50
2023-03-06T22:46:45.224Z,77.69
2023-03-06T22:49:15.174Z,77.74
2023-03-06T22:52:22.443Z,77.90
2023-03-06T22:55:32.952Z,77.62
2023-03-06T22:58:49.541Z,77.45
2023-03-06T23:02:02.133Z,77.98
2023-03-06T23:05:02.207Z,77.93
2023-03-06T23:08:11.064Z,77.89
2023-03-06T23:10:39.904Z,78.21
2023-03-06T23:13:08.387Z,78.27
2023-03-06T23:15:48.193Z,77.93
2023-03-06T23:18:20.679Z,78.22
2023-03-06T23:20:57.913Z,77.87
2023-03-06T23:24:24.584Z,77.84
2023-03-06T23:27:34.433Z,78.40
2023-03-06T23:30:31.934Z,78.53
2023-03-06T23:33:43.243Z,78.63
2023-03-06T23:36:14.857Z,78.40
2023-03-06T23:38:44.457Z,77.96
2023-03-06T23:41:14.514Z,78.06
2023-03-06T23:44:45.049Z,78.22
2023-03-06T23:48:13.383Z,78.52
2023-03-06T23:51:01.527Z,78.11
2023-03-06T23:53:32.791Z,78.19
2023-03-06T23:56:04.340Z,78.04
2023-03-06T23:58:34.270Z,78.24
